sensor_id;sensor_type;location;lat;lon;timestamp;pressure;altitude;pressure_sealevel;temperature;humidity
72959;BME280;60008;50.826;6.896;2022-08-20T00:00:37;100921.56;;;20.56;84.56
72959;BME280;60008;50.826;6.896;2022-08-20T00:03:10;100917.47;;;20.47;85.26
72959;BME280;60008;50.826;6.896;2022-08-20T00:05:43;100919.97;;;20.24;89.17
72959;BME280;60008;50.826;6.896;2022-08-20T00:08:11;100915.41;;;20.18;89.29
72959;BME280;60008;50.826;6.896;2022-08-20T00:10:40;100907.03;;;20.08;91.01
72959;BME280;60008;50.826;6.896;2022-08-20T00:13:09;100906.66;;;19.98;91.03
72959;BME280;60008;50.826;6.896;2022-08-20T00:15:43;100906.91;;;19.90;92.25
72959;BME280;60008;50.826;6.896;2022-08-20T00:18:10;100911.25;;;19.97;93.00
72959;BME280;60008;50.826;6.896;2022-08-20T00:20:41;100912.13;;;19.85;92.18
72959;BME280;60008;50.826;6.896;2022-08-20T00:23:09;100907.91;;;19.64;90.86
72959;BME280;60008;50.826;6.896;2022-08-20T00:25:36;100910.97;;;19.74;91.66
72959;BME280;60008;50.826;6.896;2022-08-20T00:28:03;100903.41;;;19.58;91.68
72959;BME280;60008;50.826;6.896;2022-08-20T00:30:34;100913.31;;;19.64;91.94
72959;BME280;60008;50.826;6.896;2022-08-20T00:33:05;100916.09;;;19.44;92.32
72959;BME280;60008;50.826;6.896;2022-08-20T00:35:36;100912.72;;;19.55;92.30
72959;BME280;60008;50.826;6.896;2022-08-20T00:38:03;100921.81;;;19.54;92.45
72959;BME280;60008;50.826;6.896;2022-08-20T00:40:34;100924.38;;;19.43;91.78
72959;BME280;60008;50.826;6.896;2022-08-20T00:43:06;100920.00;;;19.48;91.90
72959;BME280;60008;50.826;6.896;2022-08-20T00:45:34;100923.34;;;19.37;91.98
72959;BME280;60008;50.826;6.896;2022-08-20T00:48:01;100927.06;;;19.43;91.14
72959;BME280;60008;50.826;6.896;2022-08-20T00:50:33;100928.94;;;19.29;92.72
72959;BME280;60008;50.826;6.896;2022-08-20T00:53:02;100931.88;;;19.21;92.29
72959;BME280;60008;50.826;6.896;2022-08-20T00:55:31;100925.38;;;19.35;92.04
72959;BME280;60008;50.826;6.896;2022-08-20T00:58:00;100923.34;;;19.31;93.02
72959;BME280;60008;50.826;6.896;2022-08-20T01:00:34;100928.53;;;19.26;91.24
72959;BME280;60008;50.826;6.896;2022-08-20T01:03:05;100919.88;;;19.24;92.77
72959;BME280;60008;50.826;6.896;2022-08-20T01:05:36;100923.34;;;19.31;91.86
72959;BME280;60008;50.826;6.896;2022-08-20T01:08:04;100927.09;;;19.23;91.81
72959;BME280;60008;50.826;6.896;2022-08-20T01:10:34;100928.72;;;19.31;92.71
72959;BME280;60008;50.826;6.896;2022-08-20T01:13:05;100920.53;;;19.13;93.00
72959;BME280;60008;50.826;6.896;2022-08-20T01:15:38;100920.91;;;19.16;94.90
72959;BME280;60008;50.826;6.896;2022-08-20T01:18:11;100919.28;;;19.15;94.17
72959;BME280;60008;50.826;6.896;2022-08-20T01:21:00;100917.25;;;19.04;93.37
72959;BME280;60008;50.826;6.896;2022-08-20T01:26:37;100915.56;;;19.10;93.32
72959;BME280;60008;50.826;6.896;2022-08-20T01:29:09;100910.38;;;19.15;94.94
72959;BME280;60008;50.826;6.896;2022-08-20T01:31:39;100910.03;;;19.05;93.52
72959;BME280;60008;50.826;6.896;2022-08-20T01:34:08;100908.53;;;19.15;94.50
72959;BME280;60008;50.826;6.896;2022-08-20T01:36:40;100912.47;;;19.13;94.09
72959;BME280;60008;50.826;6.896;2022-08-20T01:39:17;100915.16;;;19.06;93.30
72959;BME280;60008;50.826;6.896;2022-08-20T01:42:02;100913.38;;;18.80;95.09
72959;BME280;60008;50.826;6.896;2022-08-20T01:44:31;100916.28;;;18.72;94.92
72959;BME280;60008;50.826;6.896;2022-08-20T01:49:57;100918.56;;;18.62;95.54
72959;BME280;60008;50.826;6.896;2022-08-20T01:55:16;100919.78;;;18.73;96.61
72959;BME280;60008;50.826;6.896;2022-08-20T01:57:43;100920.59;;;18.86;95.43
72959;BME280;60008;50.826;6.896;2022-08-20T02:00:13;100918.91;;;18.92;94.35
72959;BME280;60008;50.826;6.896;2022-08-20T02:02:47;100918.13;;;18.91;94.42
72959;BME280;60008;50.826;6.896;2022-08-20T02:05:14;100922.47;;;18.86;94.67
72959;BME280;60008;50.826;6.896;2022-08-20T02:07:41;100919.56;;;18.87;95.55
72959;BME280;60008;50.826;6.896;2022-08-20T02:10:09;100919.97;;;18.84;95.74
72959;BME280;60008;50.826;6.896;2022-08-20T02:12:36;100916.69;;;18.76;95.23
72959;BME280;60008;50.826;6.896;2022-08-20T02:15:06;100915.44;;;18.78;96.54
72959;BME280;60008;50.826;6.896;2022-08-20T02:17:36;100914.81;;;18.76;95.53
72959;BME280;60008;50.826;6.896;2022-08-20T02:22:52;100915.06;;;18.55;96.07
72959;BME280;60008;50.826;6.896;2022-08-20T02:25:22;100916.47;;;18.38;97.06
72959;BME280;60008;50.826;6.896;2022-08-20T02:27:50;100921.03;;;18.37;97.59
72959;BME280;60008;50.826;6.896;2022-08-20T02:30:28;100918.56;;;18.36;97.64
72959;BME280;60008;50.826;6.896;2022-08-20T02:32:56;100924.53;;;18.44;97.84
72959;BME280;60008;50.826;6.896;2022-08-20T02:35:23;100930.16;;;18.56;98.05
72959;BME280;60008;50.826;6.896;2022-08-20T02:37:50;100933.66;;;18.63;97.00
72959;BME280;60008;50.826;6.896;2022-08-20T02:40:19;100933.84;;;18.75;97.84
72959;BME280;60008;50.826;6.896;2022-08-20T02:42:55;100929.91;;;18.77;96.14
72959;BME280;60008;50.826;6.896;2022-08-20T02:45:22;100927.19;;;18.90;97.09
72959;BME280;60008;50.826;6.896;2022-08-20T02:47:49;100929.25;;;18.95;96.46
72959;BME280;60008;50.826;6.896;2022-08-20T02:50:19;100921.19;;;19.01;95.71
72959;BME280;60008;50.826;6.896;2022-08-20T02:52:46;100929.66;;;19.05;96.30
72959;BME280;60008;50.826;6.896;2022-08-20T02:55:19;100934.16;;;19.11;95.14
72959;BME280;60008;50.826;6.896;2022-08-20T02:57:55;100934.00;;;18.93;95.57
72959;BME280;60008;50.826;6.896;2022-08-20T03:00:25;100932.13;;;19.00;95.69
72959;BME280;60008;50.826;6.896;2022-08-20T03:02:52;100933.59;;;18.89;95.33
72959;BME280;60008;50.826;6.896;2022-08-20T03:05:19;100934.66;;;18.88;95.96
72959;BME280;60008;50.826;6.896;2022-08-20T03:07:48;100926.56;;;18.95;96.04
72959;BME280;60008;50.826;6.896;2022-08-20T03:10:16;100925.94;;;18.93;96.47
72959;BME280;60008;50.826;6.896;2022-08-20T03:12:42;100925.72;;;18.94;95.74
72959;BME280;60008;50.826;6.896;2022-08-20T03:15:09;100924.25;;;19.12;95.52
72959;BME280;60008;50.826;6.896;2022-08-20T03:17:43;100924.84;;;19.14;95.17
72959;BME280;60008;50.826;6.896;2022-08-20T03:20:11;100929.63;;;19.12;94.55
72959;BME280;60008;50.826;6.896;2022-08-20T03:22:38;100923.22;;;19.06;94.71
72959;BME280;60008;50.826;6.896;2022-08-20T03:25:05;100925.91;;;19.13;94.79
72959;BME280;60008;50.826;6.896;2022-08-20T03:27:33;100923.41;;;19.18;94.53
72959;BME280;60008;50.826;6.896;2022-08-20T03:30:04;100916.78;;;19.20;94.78
72959;BME280;60008;50.826;6.896;2022-08-20T03:32:31;100917.84;;;19.13;94.37
72959;BME280;60008;50.826;6.896;2022-08-20T03:34:58;100918.47;;;19.08;94.78
72959;BME280;60008;50.826;6.896;2022-08-20T03:37:28;100913.72;;;19.10;95.41
72959;BME280;60008;50.826;6.896;2022-08-20T03:39:55;100920.91;;;19.23;94.80
72959;BME280;60008;50.826;6.896;2022-08-20T03:42:21;100919.03;;;19.23;95.27
72959;BME280;60008;50.826;6.896;2022-08-20T03:44:48;100924.59;;;19.28;94.76
72959;BME280;60008;50.826;6.896;2022-08-20T03:47:24;100925.47;;;19.16;95.55
72959;BME280;60008;50.826;6.896;2022-08-20T03:49:50;100923.03;;;19.08;98.14
72959;BME280;60008;50.826;6.896;2022-08-20T03:52:17;100927.63;;;18.81;99.64
72959;BME280;60008;50.826;6.896;2022-08-20T03:54:43;100931.56;;;18.85;100.00
72959;BME280;60008;50.826;6.896;2022-08-20T03:57:12;100917.09;;;18.73;100.00
72959;BME280;60008;50.826;6.896;2022-08-20T03:59:41;100920.63;;;18.73;100.00
72959;BME280;60008;50.826;6.896;2022-08-20T04:02:08;100928.66;;;18.80;100.00
72959;BME280;60008;50.826;6.896;2022-08-20T04:04:37;100929.50;;;18.80;100.00
72959;BME280;60008;50.826;6.896;2022-08-20T04:07:11;100933.84;;;18.75;100.00
72959;BME280;60008;50.826;6.896;2022-08-20T04:09:38;100931.38;;;18.67;100.00
72959;BME280;60008;50.826;6.896;2022-08-20T04:12:06;100925.41;;;18.58;100.00
72959;BME280;60008;50.826;6.896;2022-08-20T04:14:33;100919.81;;;18.66;100.00
72959;BME280;60008;50.826;6.896;2022-08-20T04:17:09;100923.94;;;18.62;100.00
72959;BME280;60008;50.826;6.896;2022-08-20T04:19:37;100927.44;;;18.63;100.00
72959;BME280;60008;50.826;6.896;2022-08-20T04:22:05;100922.06;;;18.63;100.00
72959;BME280;60008;50.826;6.896;2022-08-20T04:24:34;100923.94;;;18.69;100.00
72959;BME280;60008;50.826;6.896;2022-08-20T04:27:01;100927.84;;;18.73;100.00
72959;BME280;60008;50.826;6.896;2022-08-20T04:29:31;100934.47;;;18.77;100.00
72959;BME280;60008;50.826;6.896;2022-08-20T04:32:02;100939.81;;;18.77;100.00
72959;BME280;60008;50.826;6.896;2022-08-20T04:34:31;100939.00;;;18.70;100.00
72959;BME280;60008;50.826;6.896;2022-08-20T04:36:58;100944.16;;;18.71;100.00
72959;BME280;60008;50.826;6.896;2022-08-20T04:39:24;100955.09;;;18.76;100.00
72959;BME280;60008;50.826;6.896;2022-08-20T04:41:52;100958.63;;;18.77;100.00
72959;BME280;60008;50.826;6.896;2022-08-20T04:44:18;100955.91;;;18.83;100.00
72959;BME280;60008;50.826;6.896;2022-08-20T04:46:47;100956.34;;;18.87;100.00
72959;BME280;60008;50.826;6.896;2022-08-20T04:49:13;100960.69;;;18.75;100.00
72959;BME280;60008;50.826;6.896;2022-08-20T04:51:40;100956.97;;;18.76;100.00
72959;BME280;60008;50.826;6.896;2022-08-20T04:54:07;100961.72;;;18.67;100.00
72959;BME280;60008;50.826;6.896;2022-08-20T04:56:34;100960.47;;;18.76;100.00
72959;BME280;60008;50.826;6.896;2022-08-20T04:59:05;100965.03;;;18.82;100.00
72959;BME280;60008;50.826;6.896;2022-08-20T05:01:33;100971.66;;;18.80;100.00
72959;BME280;60008;50.826;6.896;2022-08-20T05:04:00;100971.66;;;18.80;100.00
72959;BME280;60008;50.826;6.896;2022-08-20T05:06:30;100975.78;;;18.82;100.00
72959;BME280;60008;50.826;6.896;2022-08-20T05:08:58;100972.47;;;18.80;100.00
72959;BME280;60008;50.826;6.896;2022-08-20T05:11:26;100979.91;;;18.72;100.00
72959;BME280;60008;50.826;6.896;2022-08-20T05:14:07;100972.28;;;18.69;100.00
72959;BME280;60008;50.826;6.896;2022-08-20T05:16:38;100972.47;;;18.61;100.00
72959;BME280;60008;50.826;6.896;2022-08-20T05:19:07;100984.84;;;18.62;100.00
72959;BME280;60008;50.826;6.896;2022-08-20T05:21:35;100983.63;;;18.58;100.00
72959;BME280;60008;50.826;6.896;2022-08-20T05:24:02;100986.31;;;18.58;100.00
72959;BME280;60008;50.826;6.896;2022-08-20T05:26:29;100993.97;;;18.61;100.00
72959;BME280;60008;50.826;6.896;2022-08-20T05:28:55;100999.94;;;18.63;100.00
72959;BME280;60008;50.826;6.896;2022-08-20T05:31:26;101002.19;;;18.59;100.00
72959;BME280;60008;50.826;6.896;2022-08-20T05:34:02;100998.47;;;18.34;99.32
72959;BME280;60008;50.826;6.896;2022-08-20T05:36:33;101001.56;;;18.44;99.90
72959;BME280;60008;50.826;6.896;2022-08-20T05:39:00;101002.00;;;18.48;100.00
72959;BME280;60008;50.826;6.896;2022-08-20T05:41:26;101005.88;;;18.25;100.00
72959;BME280;60008;50.826;6.896;2022-08-20T05:43:57;100995.56;;;18.29;100.00
72959;BME280;60008;50.826;6.896;2022-08-20T05:46:29;100992.88;;;18.35;98.80
72959;BME280;60008;50.826;6.896;2022-08-20T05:48:57;100993.06;;;18.27;98.99
72959;BME280;60008;50.826;6.896;2022-08-20T05:51:28;101006.31;;;18.29;98.86
72959;BME280;60008;50.826;6.896;2022-08-20T05:53:55;101003.78;;;18.14;98.83
72959;BME280;60008;50.826;6.896;2022-08-20T05:56:26;101001.13;;;18.27;99.46
72959;BME280;60008;50.826;6.896;2022-08-20T05:58:57;101005.66;;;18.20;98.07
72959;BME280;60008;50.826;6.896;2022-08-20T06:01:24;101001.53;;;18.24;99.75
72959;BME280;60008;50.826;6.896;2022-08-20T06:03:50;101006.91;;;18.18;98.94
72959;BME280;60008;50.826;6.896;2022-08-20T06:06:36;101005.66;;;18.20;99.46
72959;BME280;60008;50.826;6.896;2022-08-20T06:09:14;101011.25;;;18.25;98.73
72959;BME280;60008;50.826;6.896;2022-08-20T06:11:41;101018.47;;;18.31;98.55
72959;BME280;60008;50.826;6.896;2022-08-20T06:14:08;101014.13;;;18.30;98.38
72959;BME280;60008;50.826;6.896;2022-08-20T06:16:35;101013.50;;;18.22;98.04
72959;BME280;60008;50.826;6.896;2022-08-20T06:19:03;101014.72;;;18.19;97.80
72959;BME280;60008;50.826;6.896;2022-08-20T06:21:30;101017.03;;;18.35;98.58
72959;BME280;60008;50.826;6.896;2022-08-20T06:23:57;101017.88;;;18.42;98.28
72959;BME280;60008;50.826;6.896;2022-08-20T06:26:28;101019.50;;;18.30;95.17
72959;BME280;60008;50.826;6.896;2022-08-20T06:28:57;101027.13;;;18.40;97.92
72959;BME280;60008;50.826;6.896;2022-08-20T06:31:24;101021.59;;;18.48;95.90
72959;BME280;60008;50.826;6.896;2022-08-20T06:33:52;101027.41;;;18.52;94.44
72959;BME280;60008;50.826;6.896;2022-08-20T06:36:19;101031.53;;;18.61;94.27
72959;BME280;60008;50.826;6.896;2022-08-20T06:38:46;101031.13;;;18.51;95.63
72959;BME280;60008;50.826;6.896;2022-08-20T06:41:12;101029.69;;;18.55;94.29
72959;BME280;60008;50.826;6.896;2022-08-20T06:43:39;101035.19;;;18.40;92.32
72959;BME280;60008;50.826;6.896;2022-08-20T06:46:06;101040.22;;;18.50;93.78
72959;BME280;60008;50.826;6.896;2022-08-20T06:48:33;101035.00;;;18.41;95.00
72959;BME280;60008;50.826;6.896;2022-08-20T06:50:59;101041.44;;;18.54;93.25
72959;BME280;60008;50.826;6.896;2022-08-20T06:53:26;101051.28;;;18.40;94.72
72959;BME280;60008;50.826;6.896;2022-08-20T06:55:56;101052.31;;;18.32;94.23
72959;BME280;60008;50.826;6.896;2022-08-20T06:58:25;101052.75;;;18.36;93.99
72959;BME280;60008;50.826;6.896;2022-08-20T07:01:07;101052.91;;;18.15;93.50
72959;BME280;60008;50.826;6.896;2022-08-20T07:03:40;101066.38;;;18.41;92.45
72959;BME280;60008;50.826;6.896;2022-08-20T07:06:24;101061.00;;;18.41;92.34
72959;BME280;60008;50.826;6.896;2022-08-20T07:08:52;101063.53;;;18.49;92.17
72959;BME280;60008;50.826;6.896;2022-08-20T07:11:19;101061.44;;;18.44;92.45
72959;BME280;60008;50.826;6.896;2022-08-20T07:13:52;101059.97;;;18.35;92.87
72959;BME280;60008;50.826;6.896;2022-08-20T07:16:19;101053.03;;;18.61;91.40
72959;BME280;60008;50.826;6.896;2022-08-20T07:18:45;101060.88;;;18.82;91.53
72959;BME280;60008;50.826;6.896;2022-08-20T07:21:12;101071.22;;;18.91;90.85
72959;BME280;60008;50.826;6.896;2022-08-20T07:23:38;101060.06;;;19.08;91.65
72959;BME280;60008;50.826;6.896;2022-08-20T07:26:07;101071.78;;;19.52;90.04
72959;BME280;60008;50.826;6.896;2022-08-20T07:28:33;101063.91;;;19.64;88.15
72959;BME280;60008;50.826;6.896;2022-08-20T07:31:00;101065.91;;;19.82;86.42
72959;BME280;60008;50.826;6.896;2022-08-20T07:33:46;101073.44;;;19.53;87.68
72959;BME280;60008;50.826;6.896;2022-08-20T07:36:16;101061.03;;;19.52;87.19
72959;BME280;60008;50.826;6.896;2022-08-20T07:38:43;101059.00;;;19.35;87.58
72959;BME280;60008;50.826;6.896;2022-08-20T07:41:13;101058.63;;;19.05;89.42
72959;BME280;60008;50.826;6.896;2022-08-20T07:43:41;101066.44;;;19.20;87.38
72959;BME280;60008;50.826;6.896;2022-08-20T07:46:08;101066.84;;;19.36;87.39
72959;BME280;60008;50.826;6.896;2022-08-20T07:48:37;101070.06;;;19.71;85.62
72959;BME280;60008;50.826;6.896;2022-08-20T07:51:06;101076.50;;;20.21;85.89
72959;BME280;60008;50.826;6.896;2022-08-20T07:53:35;101065.41;;;19.98;84.05
72959;BME280;60008;50.826;6.896;2022-08-20T07:56:07;101075.69;;;19.63;85.76
72959;BME280;60008;50.826;6.896;2022-08-20T07:58:41;101068.06;;;19.53;84.04
72959;BME280;60008;50.826;6.896;2022-08-20T08:01:08;101073.28;;;19.16;86.45
72959;BME280;60008;50.826;6.896;2022-08-20T08:03:36;101067.44;;;19.58;87.12
72959;BME280;60008;50.826;6.896;2022-08-20T08:06:20;101068.44;;;19.64;86.79
72959;BME280;60008;50.826;6.896;2022-08-20T08:09:08;101068.69;;;19.55;86.92
72959;BME280;60008;50.826;6.896;2022-08-20T08:11:39;101068.06;;;19.47;83.51
72959;BME280;60008;50.826;6.896;2022-08-20T08:14:13;101068.56;;;19.88;81.95
72959;BME280;60008;50.826;6.896;2022-08-20T08:16:40;101068.19;;;20.60;78.19
72959;BME280;60008;50.826;6.896;2022-08-20T08:19:11;101078.06;;;20.42;80.27
72959;BME280;60008;50.826;6.896;2022-08-20T08:21:40;101078.34;;;20.20;80.10
72959;BME280;60008;50.826;6.896;2022-08-20T08:24:07;101068.25;;;21.10;78.82
72959;BME280;60008;50.826;6.896;2022-08-20T08:26:34;101071.66;;;20.36;78.96
72959;BME280;60008;50.826;6.896;2022-08-20T08:29:00;101070.94;;;21.10;75.17
72959;BME280;60008;50.826;6.896;2022-08-20T08:31:28;101086.69;;;20.06;79.95
72959;BME280;60008;50.826;6.896;2022-08-20T08:33:54;101080.63;;;20.61;79.39
72959;BME280;60008;50.826;6.896;2022-08-20T08:36:21;101083.44;;;21.83;71.66
72959;BME280;60008;50.826;6.896;2022-08-20T08:38:47;101089.47;;;20.37;78.87
72959;BME280;60008;50.826;6.896;2022-08-20T08:41:40;101097.50;;;20.82;80.20
72959;BME280;60008;50.826;6.896;2022-08-20T08:44:25;101102.94;;;20.37;75.94
72959;BME280;60008;50.826;6.896;2022-08-20T08:47:10;101109.19;;;20.31;78.33
72959;BME280;60008;50.826;6.896;2022-08-20T08:49:45;101093.34;;;20.79;78.17
72959;BME280;60008;50.826;6.896;2022-08-20T08:52:25;101103.44;;;21.15;75.84
72959;BME280;60008;50.826;6.896;2022-08-20T08:54:55;101104.97;;;20.48;77.08
72959;BME280;60008;50.826;6.896;2022-08-20T08:57:24;101101.28;;;20.99;74.96
72959;BME280;60008;50.826;6.896;2022-08-20T09:00:03;101106.31;;;20.26;76.44
72959;BME280;60008;50.826;6.896;2022-08-20T09:02:32;101109.91;;;20.51;77.06
72959;BME280;60008;50.826;6.896;2022-08-20T09:05:00;101112.59;;;20.51;77.55
72959;BME280;60008;50.826;6.896;2022-08-20T09:07:31;101114.63;;;20.25;77.74
72959;BME280;60008;50.826;6.896;2022-08-20T09:10:00;101111.56;;;20.01;80.08
72959;BME280;60008;50.826;6.896;2022-08-20T09:12:27;101115.97;;;19.89;79.27
72959;BME280;60008;50.826;6.896;2022-08-20T09:14:54;101122.69;;;20.11;78.34
72959;BME280;60008;50.826;6.896;2022-08-20T09:17:23;101131.31;;;20.40;76.21
72959;BME280;60008;50.826;6.896;2022-08-20T09:19:50;101129.53;;;20.14;78.43
72959;BME280;60008;50.826;6.896;2022-08-20T09:22:20;101136.75;;;20.20;78.74
72959;BME280;60008;50.826;6.896;2022-08-20T09:24:48;101132.84;;;20.16;77.55
72959;BME280;60008;50.826;6.896;2022-08-20T09:27:15;101136.75;;;20.64;76.06
72959;BME280;60008;50.826;6.896;2022-08-20T09:29:42;101132.41;;;20.95;74.39
72959;BME280;60008;50.826;6.896;2022-08-20T09:32:16;101132.63;;;20.62;75.26
72959;BME280;60008;50.826;6.896;2022-08-20T09:34:48;101132.47;;;20.57;75.06
72959;BME280;60008;50.826;6.896;2022-08-20T09:37:18;101127.88;;;20.57;75.49
72959;BME280;60008;50.826;6.896;2022-08-20T09:39:46;101134.09;;;20.58;77.47
72959;BME280;60008;50.826;6.896;2022-08-20T09:42:18;101130.13;;;20.29;76.28
72959;BME280;60008;50.826;6.896;2022-08-20T09:44:45;101137.28;;;20.48;75.63
72959;BME280;60008;50.826;6.896;2022-08-20T09:47:12;101123.09;;;20.91;73.69
72959;BME280;60008;50.826;6.896;2022-08-20T09:49:39;101129.22;;;21.11;72.14
72959;BME280;60008;50.826;6.896;2022-08-20T09:52:09;101130.53;;;22.53;67.21
72959;BME280;60008;50.826;6.896;2022-08-20T09:54:38;101139.38;;;22.13;69.83
72959;BME280;60008;50.826;6.896;2022-08-20T09:57:12;101131.72;;;22.76;65.49
72959;BME280;60008;50.826;6.896;2022-08-20T09:59:40;101127.31;;;22.45;67.80
72959;BME280;60008;50.826;6.896;2022-08-20T10:02:07;101127.81;;;23.25;66.30
72959;BME280;60008;50.826;6.896;2022-08-20T10:07:00;101130.31;;;23.73;65.09
72959;BME280;60008;50.826;6.896;2022-08-20T10:09:27;101133.66;;;24.71;61.65
72959;BME280;60008;50.826;6.896;2022-08-20T10:11:53;101137.41;;;24.98;55.92
72959;BME280;60008;50.826;6.896;2022-08-20T10:14:20;101135.31;;;26.32;53.07
72959;BME280;60008;50.826;6.896;2022-08-20T10:16:54;101123.91;;;25.70;58.82
72959;BME280;60008;50.826;6.896;2022-08-20T10:19:25;101132.19;;;23.37;60.74
72959;BME280;60008;50.826;6.896;2022-08-20T10:21:53;101139.56;;;22.66;63.80
72959;BME280;60008;50.826;6.896;2022-08-20T10:24:20;101130.34;;;21.89;68.05
72959;BME280;60008;50.826;6.896;2022-08-20T10:26:48;101142.09;;;22.61;66.95
72959;BME280;60008;50.826;6.896;2022-08-20T10:29:15;101145.63;;;23.02;63.95
72959;BME280;60008;50.826;6.896;2022-08-20T10:31:42;101142.56;;;22.87;66.91
72959;BME280;60008;50.826;6.896;2022-08-20T10:34:08;101149.03;;;22.98;64.72
72959;BME280;60008;50.826;6.896;2022-08-20T10:36:35;101142.97;;;24.75;58.84
72959;BME280;60008;50.826;6.896;2022-08-20T10:39:01;101142.50;;;23.87;62.28
72959;BME280;60008;50.826;6.896;2022-08-20T10:41:28;101145.19;;;23.17;62.57
72959;BME280;60008;50.826;6.896;2022-08-20T10:43:55;101143.38;;;23.41;63.23
72959;BME280;60008;50.826;6.896;2022-08-20T10:46:22;101148.78;;;22.58;64.68
72959;BME280;60008;50.826;6.896;2022-08-20T10:48:48;101149.03;;;22.38;66.56
72959;BME280;60008;50.826;6.896;2022-08-20T10:51:15;101156.69;;;24.28;59.46
72959;BME280;60008;50.826;6.896;2022-08-20T10:53:41;101150.22;;;23.02;63.66
72959;BME280;60008;50.826;6.896;2022-08-20T10:56:08;101152.88;;;23.32;67.02
72959;BME280;60008;50.826;6.896;2022-08-20T10:58:40;101151.13;;;22.07;67.17
72959;BME280;60008;50.826;6.896;2022-08-20T11:01:09;101147.19;;;21.84;70.40
72959;BME280;60008;50.826;6.896;2022-08-20T11:03:36;101146.09;;;21.67;69.99
72959;BME280;60008;50.826;6.896;2022-08-20T11:06:03;101142.38;;;23.12;63.42
72959;BME280;60008;50.826;6.896;2022-08-20T11:08:29;101148.94;;;23.16;65.15
72959;BME280;60008;50.826;6.896;2022-08-20T11:11:02;101144.13;;;21.99;67.83
72959;BME280;60008;50.826;6.896;2022-08-20T11:13:29;101148.72;;;21.99;68.89
72959;BME280;60008;50.826;6.896;2022-08-20T11:15:56;101150.31;;;23.72;63.08
72959;BME280;60008;50.826;6.896;2022-08-20T11:18:22;101152.19;;;22.35;65.32
72959;BME280;60008;50.826;6.896;2022-08-20T11:20:49;101150.31;;;22.36;67.84
72959;BME280;60008;50.826;6.896;2022-08-20T11:23:15;101147.91;;;23.98;61.92
72959;BME280;60008;50.826;6.896;2022-08-20T11:25:42;101148.91;;;24.60;57.84
72959;BME280;60008;50.826;6.896;2022-08-20T11:28:09;101134.41;;;25.83;55.96
72959;BME280;60008;50.826;6.896;2022-08-20T11:30:36;101148.63;;;25.52;55.05
72959;BME280;60008;50.826;6.896;2022-08-20T11:33:03;101149.31;;;24.52;59.35
72959;BME280;60008;50.826;6.896;2022-08-20T11:35:32;101162.44;;;24.72;60.50
72959;BME280;60008;50.826;6.896;2022-08-20T11:38:15;101162.72;;;24.19;60.77
72959;BME280;60008;50.826;6.896;2022-08-20T11:40:42;101162.47;;;23.04;64.57
72959;BME280;60008;50.826;6.896;2022-08-20T11:43:09;101156.72;;;22.71;65.40
72959;BME280;60008;50.826;6.896;2022-08-20T11:45:45;101157.53;;;22.42;65.94
72959;BME280;60008;50.826;6.896;2022-08-20T11:48:12;101161.41;;;23.05;66.65
72959;BME280;60008;50.826;6.896;2022-08-20T11:50:39;101156.06;;;22.58;64.64
72959;BME280;60008;50.826;6.896;2022-08-20T11:53:06;101166.72;;;22.23;64.97
72959;BME280;60008;50.826;6.896;2022-08-20T11:55:33;101156.88;;;22.10;62.93
72959;BME280;60008;50.826;6.896;2022-08-20T11:58:00;101153.44;;;22.51;62.19
72959;BME280;60008;50.826;6.896;2022-08-20T12:00:28;101153.69;;;22.79;63.67
72959;BME280;60008;50.826;6.896;2022-08-20T12:03:02;101155.28;;;22.98;66.15
72959;BME280;60008;50.826;6.896;2022-08-20T12:05:31;101148.34;;;22.91;63.68
72959;BME280;60008;50.826;6.896;2022-08-20T12:07:59;101143.59;;;22.86;63.53
72959;BME280;60008;50.826;6.896;2022-08-20T12:10:27;101144.75;;;22.79;61.38
72959;BME280;60008;50.826;6.896;2022-08-20T12:12:54;101150.09;;;22.37;62.60
72959;BME280;60008;50.826;6.896;2022-08-20T12:15:22;101148.16;;;22.74;64.10
72959;BME280;60008;50.826;6.896;2022-08-20T12:17:49;101144.84;;;22.72;63.54
72959;BME280;60008;50.826;6.896;2022-08-20T12:20:15;101140.88;;;22.57;61.94
72959;BME280;60008;50.826;6.896;2022-08-20T12:22:42;101139.22;;;22.74;61.22
72959;BME280;60008;50.826;6.896;2022-08-20T12:25:12;101144.38;;;22.64;61.10
72959;BME280;60008;50.826;6.896;2022-08-20T12:27:39;101144.81;;;22.61;59.94
72959;BME280;60008;50.826;6.896;2022-08-20T12:30:12;101151.28;;;22.41;63.83
72959;BME280;60008;50.826;6.896;2022-08-20T12:32:39;101157.31;;;22.73;62.77
72959;BME280;60008;50.826;6.896;2022-08-20T12:35:07;101150.09;;;22.97;59.81
72959;BME280;60008;50.826;6.896;2022-08-20T12:37:34;101143.75;;;23.03;59.20
72959;BME280;60008;50.826;6.896;2022-08-20T12:40:04;101140.22;;;23.02;59.60
72959;BME280;60008;50.826;6.896;2022-08-20T12:42:32;101143.31;;;23.18;61.51
72959;BME280;60008;50.826;6.896;2022-08-20T12:44:59;101134.69;;;22.97;57.83
72959;BME280;60008;50.826;6.896;2022-08-20T12:47:31;101142.75;;;22.74;59.38
72959;BME280;60008;50.826;6.896;2022-08-20T12:50:05;101143.03;;;22.84;57.92
72959;BME280;60008;50.826;6.896;2022-08-20T12:52:33;101150.03;;;22.74;60.15
72959;BME280;60008;50.826;6.896;2022-08-20T12:55:01;101140.84;;;22.45;61.28
72959;BME280;60008;50.826;6.896;2022-08-20T12:57:31;101136.97;;;22.41;61.22
72959;BME280;60008;50.826;6.896;2022-08-20T13:00:02;101132.91;;;22.80;59.00
72959;BME280;60008;50.826;6.896;2022-08-20T13:02:30;101138.22;;;22.98;57.14
72959;BME280;60008;50.826;6.896;2022-08-20T13:04:57;101138.41;;;23.26;57.23
72959;BME280;60008;50.826;6.896;2022-08-20T13:07:30;101128.66;;;23.37;55.88
72959;BME280;60008;50.826;6.896;2022-08-20T13:09:58;101125.66;;;23.03;55.20
72959;BME280;60008;50.826;6.896;2022-08-20T13:12:25;101121.06;;;23.16;56.79